BAW9706 LKPR-EPWA
Flight info
| Callsign | BAW9706 |
|---|---|
| Flight time | 0h 49m |
| Altitude | 35000 |
| Route | ARTUP DCT LAGAR DCT MISKA DCT OKENO Q277 AGAVA |
| Aircraft | A320/M-SDE3FGHIRWY/LB1 |
Departure
| Time | 2026-05-06 18:58 |
|---|---|
| Airport | Václav Havel Airport Prague (LKPR) |
Arrival
| Time | 2026-05-06 19:47 |
|---|---|
| Airport | Warsaw Chopin Airport (EPWA) |
| Time | Latitude | Longitude | Altitude | Speed | Heading |
|---|---|---|---|---|---|
| 2026-05-06 18:10 | 50.10391 | 14.26692 | 1174 ft | 0 kts | 34° |
| 2026-05-06 18:46 | 50.10372 | 14.26672 | 1170 ft | 4 kts | 30° |
| 2026-05-06 18:46 | 50.10354 | 14.26660 | 1170 ft | 4 kts | 319° |
| 2026-05-06 18:47 | 50.10340 | 14.26688 | 1172 ft | 4 kts | 304° |
| 2026-05-06 18:47 | 50.10327 | 14.26716 | 1169 ft | 0 kts | 304° |
| 2026-05-06 18:50 | 50.10331 | 14.26709 | 1170 ft | 3 kts | 304° |
| 2026-05-06 18:50 | 50.10348 | 14.26663 | 1170 ft | 7 kts | 287° |
| 2026-05-06 18:51 | 50.10316 | 14.26587 | 1173 ft | 11 kts | 218° |
| 2026-05-06 18:51 | 50.10262 | 14.26514 | 1175 ft | 10 kts | 246° |
| 2026-05-06 18:51 | 50.10285 | 14.26413 | 1176 ft | 12 kts | 305° |
| 2026-05-06 18:51 | 50.10349 | 14.26289 | 1174 ft | 18 kts | 307° |
| 2026-05-06 18:52 | 50.10440 | 14.26102 | 1172 ft | 24 kts | 306° |
| 2026-05-06 18:52 | 50.10542 | 14.25888 | 1172 ft | 25 kts | 303° |
| 2026-05-06 18:52 | 50.10627 | 14.25669 | 1171 ft | 19 kts | 300° |
| 2026-05-06 18:52 | 50.10610 | 14.25515 | 1172 ft | 16 kts | 239° |
| 2026-05-06 18:53 | 50.10581 | 14.25339 | 1170 ft | 18 kts | 259° |
| 2026-05-06 18:53 | 50.10577 | 14.25302 | 1169 ft | 0 kts | 259° |
| 2026-05-06 18:56 | 50.10576 | 14.25299 | 1169 ft | 2 kts | 259° |
| 2026-05-06 18:57 | 50.10565 | 14.25214 | 1167 ft | 15 kts | 256° |
| 2026-05-06 18:57 | 50.10519 | 14.25130 | 1166 ft | 8 kts | 157° |
| 2026-05-06 18:57 | 50.10470 | 14.25219 | 1168 ft | 27 kts | 126° |
| 2026-05-06 18:57 | 50.10216 | 14.25746 | 1187 ft | 92 kts | 127° |
| 2026-05-06 18:58 | 50.09723 | 14.26767 | 1209 ft | 141 kts | 127° |
| 2026-05-06 18:58 | 50.09103 | 14.28073 | 1668 ft | 146 kts | 126° |
| 2026-05-06 18:58 | 50.08508 | 14.29309 | 2333 ft | 143 kts | 125° |
| 2026-05-06 18:58 | 50.07902 | 14.30551 | 2765 ft | 146 kts | 126° |
| 2026-05-06 18:59 | 50.07283 | 14.31814 | 3182 ft | 148 kts | 126° |
| 2026-05-06 18:59 | 50.06652 | 14.33104 | 3542 ft | 152 kts | 127° |
| 2026-05-06 18:59 | 50.06012 | 14.34425 | 3918 ft | 154 kts | 128° |
| 2026-05-06 18:59 | 50.05365 | 14.35762 | 4337 ft | 155 kts | 129° |
| 2026-05-06 19:00 | 50.04677 | 14.37176 | 4480 ft | 178 kts | 130° |
| 2026-05-06 19:00 | 50.03907 | 14.38770 | 4824 ft | 191 kts | 129° |
| 2026-05-06 19:00 | 50.03067 | 14.40500 | 5086 ft | 210 kts | 129° |
| 2026-05-06 19:00 | 50.02139 | 14.42388 | 5375 ft | 232 kts | 130° |
| 2026-05-06 19:01 | 50.01109 | 14.44503 | 5661 ft | 257 kts | 130° |
| 2026-05-06 19:01 | 50.00000 | 14.46789 | 6293 ft | 269 kts | 130° |
| 2026-05-06 19:01 | 49.98861 | 14.49139 | 7043 ft | 275 kts | 130° |
| 2026-05-06 19:01 | 49.97809 | 14.51665 | 7822 ft | 285 kts | 116° |
| 2026-05-06 19:02 | 49.97442 | 14.54739 | 8545 ft | 298 kts | 89° |
| 2026-05-06 19:02 | 49.97993 | 14.57869 | 9305 ft | 308 kts | 62° |
| 2026-05-06 19:02 | 49.99418 | 14.60368 | 9951 ft | 314 kts | 36° |
| 2026-05-06 19:02 | 50.01242 | 14.62437 | 10229 ft | 336 kts | 35° |
| 2026-05-06 19:03 | 50.03191 | 14.64651 | 10484 ft | 356 kts | 36° |
| 2026-05-06 19:03 | 50.05203 | 14.66960 | 11066 ft | 362 kts | 36° |
| 2026-05-06 19:03 | 50.07243 | 14.69313 | 11580 ft | 367 kts | 36° |
| 2026-05-06 19:03 | 50.09297 | 14.71690 | 12159 ft | 369 kts | 36° |
| 2026-05-06 19:04 | 50.11364 | 14.74094 | 12872 ft | 372 kts | 36° |
| 2026-05-06 19:04 | 50.13446 | 14.76518 | 13564 ft | 375 kts | 36° |
| 2026-05-06 19:04 | 50.15568 | 14.78919 | 14160 ft | 379 kts | 32° |
| 2026-05-06 19:04 | 50.17912 | 14.80821 | 14728 ft | 382 kts | 20° |
| 2026-05-06 19:05 | 50.20457 | 14.82009 | 15294 ft | 383 kts | 8° |
| 2026-05-06 19:05 | 50.23110 | 14.82554 | 15663 ft | 386 kts | 4° |
| 2026-05-06 19:05 | 50.25779 | 14.83016 | 15759 ft | 387 kts | 4° |
| 2026-05-06 19:05 | 50.28451 | 14.83720 | 16270 ft | 393 kts | 15° |
| 2026-05-06 19:06 | 50.30937 | 14.85535 | 16853 ft | 398 kts | 32° |
| 2026-05-06 19:06 | 50.33265 | 14.87910 | 17443 ft | 402 kts | 33° |
| 2026-05-06 19:06 | 50.35577 | 14.90311 | 18015 ft | 406 kts | 33° |
| 2026-05-06 19:06 | 50.37934 | 14.92780 | 18530 ft | 410 kts | 33° |
| 2026-05-06 19:07 | 50.40313 | 14.95282 | 18991 ft | 415 kts | 33° |
| 2026-05-06 19:07 | 50.42753 | 14.97852 | 19510 ft | 419 kts | 33° |
| 2026-05-06 19:07 | 50.45181 | 15.00407 | 20042 ft | 423 kts | 33° |
| 2026-05-06 19:07 | 50.47606 | 15.02949 | 20554 ft | 426 kts | 33° |
| 2026-05-06 19:08 | 50.50084 | 15.05545 | 21057 ft | 430 kts | 33° |
| 2026-05-06 19:08 | 50.52585 | 15.08166 | 21553 ft | 434 kts | 33° |
| 2026-05-06 19:08 | 50.55108 | 15.10812 | 22049 ft | 438 kts | 33° |
| 2026-05-06 19:08 | 50.57651 | 15.13484 | 22541 ft | 441 kts | 33° |
| 2026-05-06 19:09 | 50.60210 | 15.16183 | 23032 ft | 445 kts | 34° |
| 2026-05-06 19:09 | 50.62790 | 15.18911 | 23494 ft | 448 kts | 34° |
| 2026-05-06 19:09 | 50.65383 | 15.21659 | 23906 ft | 451 kts | 34° |
| 2026-05-06 19:09 | 50.67993 | 15.24423 | 24315 ft | 453 kts | 34° |
| 2026-05-06 19:10 | 50.70616 | 15.27206 | 24708 ft | 456 kts | 34° |
| 2026-05-06 19:10 | 50.73250 | 15.30007 | 25126 ft | 458 kts | 34° |
| 2026-05-06 19:10 | 50.75834 | 15.32952 | 25510 ft | 460 kts | 42° |
| 2026-05-06 19:10 | 50.77986 | 15.36680 | 25878 ft | 460 kts | 57° |
| 2026-05-06 19:11 | 50.79461 | 15.41138 | 26270 ft | 457 kts | 73° |
| 2026-05-06 19:11 | 50.80416 | 15.45923 | 26668 ft | 457 kts | 76° |
| 2026-05-06 19:11 | 50.81331 | 15.50746 | 27032 ft | 459 kts | 77° |
| 2026-05-06 19:11 | 50.82232 | 15.55597 | 27381 ft | 461 kts | 77° |
| 2026-05-06 19:12 | 50.83131 | 15.60481 | 27733 ft | 464 kts | 77° |
| 2026-05-06 19:12 | 50.84034 | 15.65388 | 28055 ft | 466 kts | 77° |
| 2026-05-06 19:12 | 50.84944 | 15.70326 | 28348 ft | 469 kts | 77° |
| 2026-05-06 19:12 | 50.85865 | 15.75296 | 28685 ft | 472 kts | 77° |
| 2026-05-06 19:13 | 50.86794 | 15.80295 | 29014 ft | 474 kts | 77° |
| 2026-05-06 19:13 | 50.87725 | 15.85315 | 29345 ft | 477 kts | 77° |
| 2026-05-06 19:13 | 50.88657 | 15.90371 | 29684 ft | 479 kts | 77° |
| 2026-05-06 19:13 | 50.89589 | 15.95441 | 30026 ft | 480 kts | 77° |
| 2026-05-06 19:14 | 50.90519 | 16.00520 | 30408 ft | 480 kts | 77° |
| 2026-05-06 19:14 | 50.91446 | 16.05591 | 30779 ft | 479 kts | 77° |
| 2026-05-06 19:14 | 50.92372 | 16.10672 | 31131 ft | 480 kts | 77° |
| 2026-05-06 19:14 | 50.93296 | 16.15752 | 31515 ft | 480 kts | 77° |
| 2026-05-06 19:15 | 50.94221 | 16.20840 | 31898 ft | 480 kts | 77° |
| 2026-05-06 19:15 | 50.95141 | 16.25928 | 32200 ft | 482 kts | 77° |
| 2026-05-06 19:15 | 50.96063 | 16.31048 | 32520 ft | 483 kts | 77° |
| 2026-05-06 19:15 | 50.96986 | 16.36175 | 32879 ft | 484 kts | 77° |
| 2026-05-06 19:16 | 50.97908 | 16.41306 | 33258 ft | 484 kts | 77° |
| 2026-05-06 19:16 | 50.98826 | 16.46444 | 33633 ft | 484 kts | 77° |
| 2026-05-06 19:16 | 50.99740 | 16.51583 | 33972 ft | 484 kts | 77° |
| 2026-05-06 19:16 | 51.00655 | 16.56732 | 34288 ft | 484 kts | 77° |
| 2026-05-06 19:17 | 51.01568 | 16.61875 | 34605 ft | 484 kts | 77° |
| 2026-05-06 19:17 | 51.02480 | 16.67029 | 34756 ft | 485 kts | 77° |
| 2026-05-06 19:17 | 51.03393 | 16.72210 | 34795 ft | 489 kts | 77° |
| 2026-05-06 19:18 | 51.05224 | 16.82651 | 34797 ft | 493 kts | 77° |
| 2026-05-06 19:18 | 51.07055 | 16.93162 | 34807 ft | 493 kts | 77° |
| 2026-05-06 19:19 | 51.08874 | 17.03659 | 34810 ft | 492 kts | 77° |
| 2026-05-06 19:19 | 51.10916 | 17.14005 | 34803 ft | 484 kts | 73° |
| 2026-05-06 19:20 | 51.13155 | 17.24033 | 34801 ft | 479 kts | 72° |
| 2026-05-06 19:20 | 51.15379 | 17.34034 | 34754 ft | 479 kts | 73° |
| 2026-05-06 19:21 | 51.17516 | 17.44108 | 34787 ft | 481 kts | 73° |
| 2026-05-06 19:21 | 51.19616 | 17.54223 | 34789 ft | 481 kts | 74° |
| 2026-05-06 19:22 | 51.21713 | 17.64346 | 34812 ft | 480 kts | 73° |
| 2026-05-06 19:22 | 51.23819 | 17.74452 | 34808 ft | 480 kts | 73° |
| 2026-05-06 19:23 | 51.25903 | 17.84495 | 34808 ft | 479 kts | 74° |
| 2026-05-06 19:23 | 51.27986 | 17.94608 | 34770 ft | 479 kts | 74° |
| 2026-05-06 19:24 | 51.30058 | 18.04737 | 34773 ft | 480 kts | 74° |
| 2026-05-06 19:24 | 51.32132 | 18.14888 | 34777 ft | 481 kts | 74° |
| 2026-05-06 19:25 | 51.34200 | 18.25059 | 34803 ft | 481 kts | 74° |
| 2026-05-06 19:25 | 51.36247 | 18.35236 | 34806 ft | 481 kts | 74° |
| 2026-05-06 19:26 | 51.38285 | 18.45422 | 34806 ft | 480 kts | 74° |
| 2026-05-06 19:26 | 51.40320 | 18.55603 | 34781 ft | 480 kts | 74° |
| 2026-05-06 19:27 | 51.42348 | 18.65799 | 34757 ft | 481 kts | 74° |
| 2026-05-06 19:27 | 51.43022 | 18.69201 | 34270 ft | 486 kts | 74° |
| 2026-05-06 19:27 | 51.44055 | 18.74437 | 33214 ft | 497 kts | 74° |
| 2026-05-06 19:27 | 51.45085 | 18.79669 | 32963 ft | 486 kts | 75° |
| 2026-05-06 19:28 | 51.46089 | 18.84791 | 32629 ft | 478 kts | 75° |
| 2026-05-06 19:28 | 51.47081 | 18.89855 | 32209 ft | 473 kts | 75° |
| 2026-05-06 19:28 | 51.48062 | 18.94858 | 31791 ft | 467 kts | 75° |
| 2026-05-06 19:28 | 51.49030 | 18.99785 | 31000 ft | 460 kts | 75° |
| 2026-05-06 19:29 | 51.49987 | 19.04687 | 30012 ft | 459 kts | 76° |
| 2026-05-06 19:29 | 51.50929 | 19.09554 | 29090 ft | 455 kts | 76° |
| 2026-05-06 19:29 | 51.51861 | 19.14404 | 28570 ft | 453 kts | 76° |
| 2026-05-06 19:29 | 51.52782 | 19.19209 | 28085 ft | 449 kts | 76° |
| 2026-05-06 19:30 | 51.53698 | 19.23975 | 27594 ft | 444 kts | 76° |
| 2026-05-06 19:30 | 51.54602 | 19.28677 | 26779 ft | 438 kts | 76° |
| 2026-05-06 19:30 | 51.55500 | 19.33355 | 26276 ft | 437 kts | 76° |
| 2026-05-06 19:30 | 51.56390 | 19.37999 | 25872 ft | 433 kts | 76° |
| 2026-05-06 19:31 | 51.57272 | 19.42616 | 25475 ft | 431 kts | 76° |
| 2026-05-06 19:31 | 51.58144 | 19.47193 | 24998 ft | 425 kts | 76° |
| 2026-05-06 19:31 | 51.59857 | 19.56243 | 23988 ft | 421 kts | 76° |
| 2026-05-06 19:32 | 51.60705 | 19.60736 | 23625 ft | 418 kts | 76° |
| 2026-05-06 19:32 | 51.61544 | 19.65200 | 23222 ft | 416 kts | 76° |
| 2026-05-06 19:32 | 51.62375 | 19.69620 | 22602 ft | 409 kts | 76° |
| 2026-05-06 19:32 | 51.63191 | 19.73984 | 22057 ft | 406 kts | 76° |
| 2026-05-06 19:33 | 51.63999 | 19.78318 | 21649 ft | 402 kts | 76° |
| 2026-05-06 19:33 | 51.64799 | 19.82618 | 21216 ft | 399 kts | 76° |
| 2026-05-06 19:33 | 51.65593 | 19.86886 | 20777 ft | 397 kts | 76° |
| 2026-05-06 19:33 | 51.66380 | 19.91121 | 20319 ft | 392 kts | 76° |
| 2026-05-06 19:34 | 51.67155 | 19.95299 | 19553 ft | 387 kts | 76° |
| 2026-05-06 19:34 | 51.67921 | 19.99444 | 18826 ft | 384 kts | 76° |
| 2026-05-06 19:34 | 51.68679 | 20.03551 | 18204 ft | 380 kts | 76° |
| 2026-05-06 19:34 | 51.69427 | 20.07617 | 17508 ft | 377 kts | 76° |
| 2026-05-06 19:35 | 51.70168 | 20.11662 | 17051 ft | 375 kts | 76° |
| 2026-05-06 19:35 | 51.70901 | 20.15679 | 16629 ft | 372 kts | 76° |
| 2026-05-06 19:35 | 51.71629 | 20.19666 | 16196 ft | 369 kts | 76° |
| 2026-05-06 19:35 | 51.72351 | 20.23624 | 15775 ft | 367 kts | 76° |
| 2026-05-06 19:36 | 51.73067 | 20.27553 | 15339 ft | 364 kts | 76° |
| 2026-05-06 19:36 | 51.73773 | 20.31427 | 15153 ft | 354 kts | 76° |
| 2026-05-06 19:36 | 51.74457 | 20.35185 | 15026 ft | 344 kts | 76° |
| 2026-05-06 19:36 | 51.75120 | 20.38844 | 14803 ft | 337 kts | 76° |
| 2026-05-06 19:37 | 51.75771 | 20.42452 | 14356 ft | 332 kts | 77° |
| 2026-05-06 19:37 | 51.76412 | 20.46015 | 13759 ft | 329 kts | 77° |
| 2026-05-06 19:37 | 51.77045 | 20.49550 | 13129 ft | 326 kts | 77° |
| 2026-05-06 19:37 | 51.77797 | 20.52982 | 12498 ft | 325 kts | 65° |
| 2026-05-06 19:38 | 51.78833 | 20.56209 | 11851 ft | 322 kts | 65° |
| 2026-05-06 19:38 | 51.79858 | 20.59411 | 11244 ft | 319 kts | 65° |
| 2026-05-06 19:38 | 51.80869 | 20.62586 | 10655 ft | 316 kts | 65° |
| 2026-05-06 19:38 | 51.81869 | 20.65738 | 10083 ft | 316 kts | 65° |
| 2026-05-06 19:39 | 51.82865 | 20.68880 | 9793 ft | 313 kts | 65° |
| 2026-05-06 19:39 | 51.83855 | 20.72004 | 9463 ft | 311 kts | 65° |
| 2026-05-06 19:39 | 51.84821 | 20.75050 | 8905 ft | 307 kts | 65° |
| 2026-05-06 19:39 | 51.85804 | 20.78148 | 8296 ft | 304 kts | 65° |
| 2026-05-06 19:40 | 51.86763 | 20.81177 | 7709 ft | 301 kts | 65° |
| 2026-05-06 19:40 | 51.87712 | 20.84177 | 7145 ft | 298 kts | 65° |
| 2026-05-06 19:40 | 51.88651 | 20.87146 | 6586 ft | 295 kts | 64° |
| 2026-05-06 19:40 | 51.89578 | 20.90091 | 6020 ft | 292 kts | 65° |
| 2026-05-06 19:41 | 51.90493 | 20.93011 | 5424 ft | 291 kts | 64° |
| 2026-05-06 19:41 | 51.91405 | 20.95931 | 5075 ft | 288 kts | 64° |
| 2026-05-06 19:41 | 51.92309 | 20.98819 | 4618 ft | 286 kts | 64° |
| 2026-05-06 19:41 | 51.93203 | 21.01672 | 4190 ft | 279 kts | 64° |
| 2026-05-06 19:42 | 51.94058 | 21.04391 | 3929 ft | 265 kts | 64° |
| 2026-05-06 19:42 | 51.95014 | 21.06836 | 3789 ft | 251 kts | 48° |
| 2026-05-06 19:42 | 51.96291 | 21.08664 | 3654 ft | 240 kts | 31° |
| 2026-05-06 19:42 | 51.97759 | 21.09795 | 3525 ft | 228 kts | 13° |
| 2026-05-06 19:43 | 51.99274 | 21.10235 | 3401 ft | 215 kts | 358° |
| 2026-05-06 19:43 | 52.00715 | 21.10060 | 3297 ft | 200 kts | 343° |
| 2026-05-06 19:43 | 52.02002 | 21.09382 | 3206 ft | 193 kts | 330° |
| 2026-05-06 19:43 | 52.03166 | 21.08391 | 3030 ft | 190 kts | 327° |
| 2026-05-06 19:44 | 52.04327 | 21.07381 | 2803 ft | 189 kts | 327° |
| 2026-05-06 19:44 | 52.05483 | 21.06377 | 2562 ft | 188 kts | 327° |
| 2026-05-06 19:44 | 52.06628 | 21.05382 | 2327 ft | 186 kts | 327° |
| 2026-05-06 19:44 | 52.07771 | 21.04388 | 2080 ft | 183 kts | 327° |
| 2026-05-06 19:45 | 52.08858 | 21.03446 | 1842 ft | 170 kts | 326° |
| 2026-05-06 19:45 | 52.09844 | 21.02590 | 1647 ft | 153 kts | 326° |
| 2026-05-06 19:45 | 52.10752 | 21.01797 | 1413 ft | 145 kts | 327° |
| 2026-05-06 19:45 | 52.11629 | 21.01030 | 1254 ft | 142 kts | 328° |
| 2026-05-06 19:46 | 52.12501 | 21.00271 | 1066 ft | 142 kts | 328° |
| 2026-05-06 19:46 | 52.13370 | 20.99509 | 876 ft | 141 kts | 329° |
| 2026-05-06 19:46 | 52.14233 | 20.98756 | 699 ft | 139 kts | 330° |
| 2026-05-06 19:46 | 52.15074 | 20.98022 | 474 ft | 135 kts | 330° |
| 2026-05-06 19:47 | 52.15895 | 20.97300 | 354 ft | 131 kts | 332° |
| 2026-05-06 19:47 | 52.16595 | 20.96695 | 338 ft | 92 kts | 331° |
| 2026-05-06 19:47 | 52.17012 | 20.96332 | 332 ft | 44 kts | 333° |
| 2026-05-06 19:47 | 52.17238 | 20.96242 | 333 ft | 26 kts | 359° |
| 2026-05-06 19:48 | 52.17318 | 20.96246 | 338 ft | 5 kts | 4° |
| 2026-05-06 19:48 | 52.17356 | 20.96252 | 337 ft | 6 kts | 10° |
| 2026-05-06 19:48 | 52.17396 | 20.96289 | 333 ft | 6 kts | 52° |
| 2026-05-06 19:48 | 52.17401 | 20.96303 | 333 ft | 1 kts | 56° |
| 2026-05-06 19:49 | 52.17415 | 20.96340 | 337 ft | 6 kts | 60° |
| 2026-05-06 19:49 | 52.17444 | 20.96431 | 337 ft | 12 kts | 62° |
| 2026-05-06 19:49 | 52.17452 | 20.96573 | 336 ft | 15 kts | 130° |
| 2026-05-06 19:49 | 52.17357 | 20.96665 | 339 ft | 17 kts | 152° |
| 2026-05-06 19:50 | 52.17247 | 20.96762 | 337 ft | 19 kts | 152° |
| 2026-05-06 19:50 | 52.17122 | 20.96873 | 338 ft | 22 kts | 152° |
| 2026-05-06 19:50 | 52.16982 | 20.96994 | 337 ft | 24 kts | 152° |
| 2026-05-06 19:50 | 52.16846 | 20.97113 | 335 ft | 3 kts | 152° |
| 2026-05-06 19:51 | 52.16833 | 20.97146 | 337 ft | 4 kts | 103° |
| 2026-05-06 19:51 | 52.16838 | 20.97208 | 339 ft | 7 kts | 76° |
| 2026-05-06 19:51 | 52.16846 | 20.97256 | 336 ft | 3 kts | 75° |
| 2026-05-06 19:51 | 52.16850 | 20.97284 | 338 ft | 0 kts | 75° |